createdAt,value
2022-08-12T00:01:01.469Z,2.80
2022-08-12T00:03:47.495Z,2.50
2022-08-12T00:06:34.233Z,2.67
2022-08-12T00:09:24.376Z,2.90
2022-08-12T00:12:12.156Z,2.90
2022-08-12T00:14:59.307Z,2.70
2022-08-12T00:17:45.448Z,2.90
2022-08-12T00:20:31.439Z,2.57
2022-08-12T00:23:17.698Z,2.67
2022-08-12T00:26:22.861Z,2.93
2022-08-12T00:29:10.280Z,2.80
2022-08-12T00:31:57.409Z,3.00
2022-08-12T00:34:43.693Z,2.80
2022-08-12T00:37:32.574Z,2.90
2022-08-12T00:40:18.550Z,2.80
2022-08-12T00:42:45.761Z,3.30
2022-08-12T00:45:17.842Z,3.10
2022-08-12T00:47:47.563Z,2.90
2022-08-12T00:50:19.145Z,3.20
2022-08-12T00:52:47.784Z,2.53
2022-08-12T00:55:16.201Z,3.43
2022-08-12T00:57:47.709Z,3.20
2022-08-12T01:00:17.355Z,2.60
2022-08-12T01:02:49.237Z,3.40
2022-08-12T01:05:35.997Z,3.07
2022-08-12T01:08:21.838Z,3.10
2022-08-12T01:11:07.952Z,2.77
2022-08-12T01:13:37.143Z,3.20
2022-08-12T01:16:06.757Z,3.13
2022-08-12T01:18:36.842Z,2.97
2022-08-12T01:21:08.707Z,3.07
2022-08-12T01:23:40.830Z,3.03
2022-08-12T01:26:11.824Z,3.00
2022-08-12T01:28:40.359Z,3.80
2022-08-12T01:31:11.349Z,3.00
2022-08-12T01:33:43.575Z,3.30
2022-08-12T01:36:12.530Z,3.10
2022-08-12T01:38:41.307Z,3.30
2022-08-12T01:41:11.107Z,3.20
2022-08-12T01:43:39.476Z,3.50
2022-08-12T01:46:09.060Z,3.63
2022-08-12T01:48:41.440Z,3.80
2022-08-12T01:51:11.739Z,4.13
2022-08-12T01:54:04.666Z,3.63
2022-08-12T01:56:37.270Z,3.90
2022-08-12T01:59:23.606Z,3.50
2022-08-12T02:01:52.174Z,3.60
2022-08-12T02:04:40.734Z,3.40
2022-08-12T02:07:28.278Z,4.10
2022-08-12T02:10:50.270Z,3.90
2022-08-12T02:13:10.003Z,3.70
2022-08-12T02:15:40.945Z,3.87
2022-08-12T02:18:14.019Z,4.40
2022-08-12T02:20:52.425Z,3.80
2022-08-12T02:23:23.517Z,4.00
2022-08-12T02:25:54.413Z,4.10
2022-08-12T02:28:24.195Z,4.50
2022-08-12T02:30:52.609Z,4.10
2022-08-12T02:33:21.011Z,4.70
2022-08-12T02:35:51.576Z,4.50
2022-08-12T02:38:21.314Z,4.10
2022-08-12T02:40:49.649Z,4.53
2022-08-12T02:43:19.259Z,4.93
2022-08-12T02:45:51.240Z,3.87
2022-08-12T02:48:20.864Z,4.80
2022-08-12T02:50:51.379Z,4.80
2022-08-12T02:53:19.755Z,4.30
2022-08-12T02:55:48.083Z,4.23
2022-08-12T02:58:16.451Z,4.30
2022-08-12T03:00:49.689Z,4.20
2022-08-12T03:03:18.075Z,4.20
2022-08-12T03:05:47.165Z,4.30
2022-08-12T03:08:31.330Z,4.50
2022-08-12T03:11:01.767Z,4.17
2022-08-12T03:13:30.087Z,4.30
2022-08-12T03:15:59.860Z,4.67
2022-08-12T03:18:30.985Z,4.50
2022-08-12T03:20:59.493Z,4.90
2022-08-12T03:23:29.759Z,4.30
2022-08-12T03:26:00.710Z,4.40
2022-08-12T03:28:47.016Z,4.10
2022-08-12T03:31:16.812Z,4.50
2022-08-12T03:33:45.589Z,4.57
2022-08-12T03:36:29.700Z,4.47
2022-08-12T03:39:35.463Z,4.00
2022-08-12T03:42:06.488Z,4.17
2022-08-12T03:44:54.766Z,4.80
2022-08-12T03:47:42.220Z,4.40
2022-08-12T03:50:28.100Z,4.53
2022-08-12T03:53:14.465Z,4.50
2022-08-12T03:56:00.563Z,4.87
2022-08-12T03:58:46.698Z,4.37
2022-08-12T04:01:15.074Z,4.80
2022-08-12T04:03:53.892Z,5.13
2022-08-12T04:06:34.863Z,4.70
2022-08-12T04:09:14.591Z,4.97
2022-08-12T04:12:02.980Z,4.73
2022-08-12T04:14:31.368Z,4.70
2022-08-12T04:16:59.856Z,4.70
2022-08-12T04:19:29.658Z,5.00
2022-08-12T04:22:02.963Z,4.87
2022-08-12T04:24:32.255Z,4.73
2022-08-12T04:27:00.691Z,4.93
2022-08-12T04:30:17.182Z,5.00
2022-08-12T04:32:17.430Z,4.97
2022-08-12T04:34:47.130Z,5.10
2022-08-12T04:37:16.036Z,5.37
2022-08-12T04:39:44.464Z,4.70
2022-08-12T04:42:13.077Z,5.20
2022-08-12T04:44:42.496Z,5.07
2022-08-12T04:47:12.509Z,5.00
2022-08-12T04:49:41.254Z,4.50
2022-08-12T04:52:11.036Z,4.43
2022-08-12T04:54:39.516Z,4.70
2022-08-12T04:57:09.674Z,5.20
2022-08-12T04:59:46.394Z,4.60
2022-08-12T05:02:21.212Z,5.30
2022-08-12T05:04:50.995Z,4.97
2022-08-12T05:07:20.773Z,4.73
2022-08-12T05:10:00.999Z,4.70
2022-08-12T05:12:32.004Z,5.20
2022-08-12T05:15:00.757Z,4.70
2022-08-12T05:17:29.590Z,4.70
2022-08-12T05:19:58.726Z,4.70
2022-08-12T05:22:30.470Z,4.60
2022-08-12T05:25:06.809Z,4.80
2022-08-12T05:27:35.187Z,5.17
2022-08-12T05:30:06.162Z,4.90
2022-08-12T05:32:37.552Z,5.00
2022-08-12T05:35:08.103Z,5.10
2022-08-12T05:37:37.972Z,4.80
2022-08-12T05:40:10.900Z,4.77
2022-08-12T05:42:40.265Z,4.80
2022-08-12T05:45:09.212Z,4.60
2022-08-12T05:47:52.875Z,5.10
2022-08-12T05:50:22.641Z,4.93
2022-08-12T05:52:53.931Z,4.90
2022-08-12T05:55:30.752Z,4.40
2022-08-12T05:57:59.676Z,5.03
2022-08-12T06:00:29.416Z,5.23
2022-08-12T06:03:01.199Z,4.60
2022-08-12T06:05:29.881Z,4.70
2022-08-12T06:08:03.026Z,4.60
2022-08-12T06:10:33.089Z,4.60
2022-08-12T06:13:02.615Z,4.63
2022-08-12T06:15:31.152Z,4.60
2022-08-12T06:18:13.925Z,5.23
2022-08-12T06:20:44.406Z,4.60
2022-08-12T06:23:15.328Z,4.80
2022-08-12T06:25:43.723Z,5.10
2022-08-12T06:28:17.348Z,4.60
2022-08-12T06:31:08.239Z,4.53
2022-08-12T06:33:56.077Z,4.80
2022-08-12T06:36:29.485Z,4.57
2022-08-12T06:39:00.193Z,4.43
2022-08-12T06:42:02.481Z,5.00
2022-08-12T06:44:34.585Z,5.07
2022-08-12T06:47:03.039Z,4.53
2022-08-12T06:49:36.357Z,4.80
2022-08-12T06:52:05.145Z,4.90
2022-08-12T06:54:35.540Z,4.50
2022-08-12T06:57:57.451Z,4.80
2022-08-12T06:59:52.395Z,5.03
2022-08-12T07:02:22.619Z,4.53
2022-08-12T07:04:52.651Z,4.27
2022-08-12T07:07:21.434Z,4.30
2022-08-12T07:10:04.338Z,4.50
2022-08-12T07:12:35.998Z,4.97
2022-08-12T07:15:04.518Z,4.40
2022-08-12T07:17:37.762Z,4.30
2022-08-12T07:20:07.008Z,4.53
2022-08-12T07:22:35.644Z,3.90
2022-08-12T07:25:23.520Z,4.47
2022-08-12T07:27:55.217Z,4.60
2022-08-12T07:30:24.248Z,4.50
2022-08-12T07:32:52.824Z,4.57
2022-08-12T07:35:21.352Z,4.50
2022-08-12T07:37:50.770Z,4.30
2022-08-12T07:40:21.050Z,4.20
2022-08-12T07:42:49.673Z,4.30
2022-08-12T07:45:19.545Z,4.87
2022-08-12T07:47:48.178Z,4.93
2022-08-12T07:50:22.973Z,5.07
2022-08-12T07:52:52.247Z,4.70
2022-08-12T07:55:22.092Z,4.80
2022-08-12T07:57:52.093Z,4.97
2022-08-12T08:00:20.542Z,4.77
2022-08-12T08:02:49.338Z,4.80
2022-08-12T08:05:19.549Z,4.73
2022-08-12T08:07:48.042Z,4.67
2022-08-12T08:10:16.695Z,4.43
2022-08-12T08:12:55.051Z,4.70
2022-08-12T08:15:44.569Z,4.70
2022-08-12T08:18:25.598Z,4.80
2022-08-12T08:21:01.364Z,5.00
2022-08-12T08:23:56.514Z,5.10
2022-08-12T08:26:27.212Z,5.10
2022-08-12T08:28:57.128Z,5.60
2022-08-12T08:31:35.188Z,4.77
2022-08-12T08:34:40.145Z,4.90
2022-08-12T08:36:57.918Z,4.43
2022-08-12T08:39:28.135Z,4.93
2022-08-12T08:42:20.495Z,5.43
2022-08-12T08:44:57.836Z,4.93
2022-08-12T08:47:27.333Z,4.40
2022-08-12T08:50:01.326Z,4.63
2022-08-12T08:52:39.270Z,4.80
2022-08-12T08:55:08.940Z,4.83
2022-08-12T08:57:43.532Z,5.00
2022-08-12T09:00:17.803Z,4.70
2022-08-12T09:02:49.115Z,4.40
2022-08-12T09:05:25.349Z,4.23
2022-08-12T09:08:09.156Z,4.53
2022-08-12T09:10:45.458Z,5.20
2022-08-12T09:19:07.866Z,4.33
2022-08-12T09:21:57.279Z,4.33
2022-08-12T09:24:30.042Z,4.40
2022-08-12T09:26:59.089Z,3.97
2022-08-12T09:30:09.820Z,4.43
2022-08-12T09:32:56.074Z,4.13
2022-08-12T09:35:22.081Z,4.13
2022-08-12T09:37:58.451Z,4.63
2022-08-12T09:41:02.569Z,4.20
2022-08-12T09:43:35.177Z,5.03
2022-08-12T09:46:19.934Z,4.10
2022-08-12T09:48:56.777Z,3.87
2022-08-12T09:51:37.341Z,3.93
2022-08-12T09:54:30.621Z,4.17
2022-08-12T09:57:02.085Z,4.30
2022-08-12T10:00:17.148Z,3.57
2022-08-12T10:02:45.763Z,3.70
2022-08-12T10:05:13.367Z,3.97
2022-08-12T10:07:42.778Z,3.70
2022-08-12T10:10:24.054Z,3.90
2022-08-12T10:13:12.884Z,3.73
2022-08-12T10:16:02.601Z,3.53
2022-08-12T10:18:35.419Z,3.67
2022-08-12T10:21:08.586Z,3.60
2022-08-12T10:23:39.782Z,3.40
2022-08-12T10:26:37.591Z,3.45
2022-08-12T10:30:03.290Z,3.72
2022-08-12T10:32:21.202Z,3.67
2022-08-12T10:34:53.382Z,3.42
2022-08-12T10:38:38.103Z,3.30
2022-08-12T10:40:20.044Z,3.72
2022-08-12T10:43:07.864Z,3.28
2022-08-12T10:45:38.366Z,3.17
2022-08-12T10:48:23.109Z,3.25
2022-08-12T10:51:01.215Z,3.20
2022-08-12T10:53:43.964Z,2.90
2022-08-12T10:56:15.380Z,3.00
2022-08-12T10:58:46.039Z,3.63
2022-08-12T11:01:49.262Z,2.60
2022-08-12T11:04:31.480Z,2.72
2022-08-12T11:07:07.084Z,2.83
2022-08-12T11:10:01.248Z,3.17
2022-08-12T11:12:56.717Z,3.28
2022-08-12T11:15:32.879Z,3.42
2022-08-12T11:18:18.109Z,3.00
2022-08-12T11:20:48.553Z,3.20
2022-08-12T11:23:25.615Z,3.15
2022-08-12T11:26:07.281Z,2.85
2022-08-12T11:28:36.978Z,2.80
2022-08-12T11:31:06.984Z,3.13
2022-08-12T11:34:05.190Z,2.78
2022-08-12T11:36:27.289Z,2.80
2022-08-12T11:38:56.343Z,2.65
2022-08-12T11:41:30.928Z,2.60
2022-08-12T11:44:12.626Z,2.63
2022-08-12T11:46:52.681Z,2.65
2022-08-12T11:49:30.733Z,2.88
2022-08-12T11:52:02.084Z,2.88
2022-08-12T11:54:30.963Z,2.70
2022-08-12T11:57:02.189Z,2.70
2022-08-12T12:02:20.641Z,2.95
2022-08-12T12:04:52.164Z,2.72
2022-08-12T12:07:22.544Z,2.78
2022-08-12T12:09:53.300Z,2.55
2022-08-12T12:12:25.243Z,3.00
2022-08-12T12:14:54.521Z,2.70
2022-08-12T12:17:24.008Z,2.70
2022-08-12T12:19:53.110Z,2.92
2022-08-12T12:22:26.807Z,2.45
2022-08-12T12:24:59.420Z,2.67
2022-08-12T12:28:04.363Z,2.70
2022-08-12T12:30:34.080Z,2.92
2022-08-12T12:33:02.442Z,2.80
2022-08-12T12:36:05.954Z,2.70
2022-08-12T12:38:20.094Z,2.70
2022-08-12T12:40:53.589Z,2.80
2022-08-12T12:43:42.466Z,2.42
2022-08-12T12:46:13.040Z,2.67
2022-08-12T12:48:44.513Z,2.75
2022-08-12T12:51:49.068Z,2.72
2022-08-12T12:54:07.453Z,2.60
2022-08-12T12:56:42.821Z,2.40
2022-08-12T12:59:54.529Z,2.78
2022-08-12T13:02:08.711Z,2.95
2022-08-12T13:04:37.928Z,2.78
2022-08-12T13:07:06.971Z,2.55
2022-08-12T13:09:36.882Z,2.58
2022-08-12T13:12:10.436Z,2.40
2022-08-12T13:14:41.076Z,2.65
2022-08-12T13:17:14.863Z,2.60
2022-08-12T13:19:48.400Z,2.35
2022-08-12T13:22:21.385Z,2.60
2022-08-12T13:24:56.459Z,2.38
2022-08-12T13:27:35.151Z,2.53
2022-08-12T13:30:10.947Z,2.65
2022-08-12T13:32:41.076Z,2.60
2022-08-12T13:35:20.116Z,2.80
2022-08-12T13:38:02.789Z,2.50
2022-08-12T13:40:32.552Z,2.78
2022-08-12T13:43:02.065Z,2.80
2022-08-12T13:45:32.138Z,2.70
2022-08-12T13:48:01.779Z,3.08
2022-08-12T13:50:32.586Z,2.60
2022-08-12T13:53:23.106Z,3.00
2022-08-12T13:56:01.277Z,3.05
2022-08-12T13:58:30.923Z,2.50
2022-08-12T14:01:05.425Z,2.45
2022-08-12T14:03:50.181Z,2.70
2022-08-12T14:06:19.952Z,2.78
2022-08-12T14:08:49.808Z,2.50
2022-08-12T14:11:19.304Z,2.50
2022-08-12T14:14:04.587Z,3.35
2022-08-12T14:16:48.527Z,2.90
2022-08-12T14:19:22.941Z,2.90
2022-08-12T14:22:00.489Z,2.95
2022-08-12T14:24:35.671Z,2.92
2022-08-12T14:27:09.252Z,3.00
2022-08-12T14:30:04.731Z,3.22
2022-08-12T14:32:35.239Z,3.00
2022-08-12T14:35:09.262Z,3.00
2022-08-12T14:37:55.574Z,2.90
2022-08-12T14:40:28.216Z,3.28
2022-08-12T14:42:57.409Z,2.80
2022-08-12T14:45:45.401Z,3.08
2022-08-12T14:48:15.869Z,3.08
2022-08-12T14:51:02.980Z,3.08
2022-08-12T14:59:57.420Z,3.58
2022-08-12T15:02:21.606Z,3.20
2022-08-12T15:04:56.059Z,3.30
2022-08-12T15:07:33.319Z,3.20
2022-08-12T15:10:14.893Z,3.22
2022-08-12T15:12:59.455Z,2.90
2022-08-12T15:15:30.509Z,3.28
2022-08-12T15:18:02.558Z,2.83
2022-08-12T15:20:37.862Z,3.40
2022-08-12T15:23:17.630Z,3.50
2022-08-12T15:25:49.591Z,3.00
2022-08-12T15:28:29.319Z,3.33
2022-08-12T15:31:00.802Z,3.63
2022-08-12T15:33:45.381Z,3.75
2022-08-12T15:36:19.531Z,3.28
2022-08-12T15:39:04.631Z,3.33
2022-08-12T15:41:50.381Z,3.38
2022-08-12T15:44:41.665Z,3.90
2022-08-12T15:47:07.779Z,3.53
2022-08-12T15:49:54.158Z,3.55
2022-08-12T15:52:27.426Z,3.20
2022-08-12T15:54:58.553Z,2.95
2022-08-12T15:57:27.714Z,3.28
2022-08-12T16:00:07.624Z,3.38
2022-08-12T16:02:50.047Z,3.25
2022-08-12T16:06:10.347Z,3.10
2022-08-12T16:08:15.249Z,2.90
2022-08-12T16:10:47.125Z,2.90
2022-08-12T16:13:18.127Z,3.25
2022-08-12T16:16:01.813Z,3.00
2022-08-12T16:18:33.363Z,3.50
2022-08-12T16:21:02.399Z,3.10
2022-08-12T16:23:51.193Z,3.38
2022-08-12T16:26:32.687Z,3.30
2022-08-12T16:29:14.566Z,2.85
2022-08-12T16:31:44.603Z,2.95
2022-08-12T16:34:26.061Z,3.08
2022-08-12T16:37:07.262Z,2.88
2022-08-12T16:40:00.711Z,2.90
2022-08-12T16:42:28.272Z,3.10
2022-08-12T16:44:57.068Z,2.88
2022-08-12T16:47:27.267Z,4.95
2022-08-12T16:49:57.674Z,7.63
2022-08-12T16:52:26.120Z,5.25
2022-08-12T16:54:56.925Z,3.25
2022-08-12T16:57:32.445Z,3.85
2022-08-12T17:00:04.513Z,2.80
2022-08-12T17:02:37.955Z,2.80
2022-08-12T17:05:14.937Z,2.70
2022-08-12T17:07:47.163Z,2.80
2022-08-12T17:10:35.908Z,3.10
2022-08-12T17:13:10.028Z,2.70
2022-08-12T17:15:50.263Z,2.60
2022-08-12T17:18:43.219Z,2.55
2022-08-12T17:21:19.802Z,2.83
2022-08-12T17:23:53.622Z,3.17
2022-08-12T17:26:28.051Z,3.10
2022-08-12T17:28:57.168Z,2.58
2022-08-12T17:32:01.073Z,2.58
2022-08-12T17:34:34.111Z,2.60
2022-08-12T17:37:05.592Z,2.85
2022-08-12T17:40:15.777Z,2.85
2022-08-12T17:42:32.970Z,2.78
2022-08-12T17:45:18.517Z,3.15
2022-08-12T17:48:05.474Z,2.67
2022-08-12T17:50:34.537Z,2.60
2022-08-12T17:53:03.681Z,3.03
2022-08-12T17:55:40.714Z,2.90
2022-08-12T17:58:15.180Z,2.95
2022-08-12T18:00:45.159Z,3.20
2022-08-12T18:04:05.732Z,2.80
2022-08-12T18:06:13.671Z,2.80
2022-08-12T18:08:53.598Z,2.53
2022-08-12T18:12:05.102Z,3.03
2022-08-12T18:14:31.033Z,3.72
2022-08-12T18:17:00.711Z,3.30
2022-08-12T18:19:48.547Z,3.08
2022-08-12T18:22:22.134Z,3.63
2022-08-12T18:25:02.464Z,4.03
2022-08-12T18:27:44.374Z,3.55
2022-08-12T18:30:28.930Z,3.22
2022-08-12T18:33:04.558Z,3.72
2022-08-12T18:35:46.836Z,3.10
2022-08-12T18:38:28.191Z,3.25
2022-08-12T18:41:21.477Z,3.30
2022-08-12T18:44:01.243Z,3.10
2022-08-12T18:46:42.978Z,3.15
2022-08-12T18:49:25.070Z,3.37
2022-08-12T18:52:04.445Z,3.50
2022-08-12T18:54:35.467Z,3.65
2022-08-12T18:57:16.151Z,3.30
2022-08-12T19:00:00.902Z,3.37
2022-08-12T19:02:36.554Z,3.40
2022-08-12T19:05:18.953Z,3.33
2022-08-12T19:08:00.888Z,3.50
2022-08-12T19:10:30.754Z,3.57
2022-08-12T19:13:23.941Z,3.70
2022-08-12T19:16:03.643Z,3.30
2022-08-12T19:18:36.874Z,3.50
2022-08-12T19:21:17.009Z,3.10
2022-08-12T19:24:10.669Z,4.13
2022-08-12T19:26:38.858Z,3.87
2022-08-12T19:29:09.109Z,3.40
2022-08-12T19:31:45.120Z,3.90
2022-08-12T19:37:18.437Z,3.70
2022-08-12T19:40:09.824Z,3.40
2022-08-12T19:42:44.567Z,3.60
2022-08-12T19:45:17.079Z,3.30
2022-08-12T19:47:51.659Z,3.37
2022-08-12T19:50:22.026Z,3.90
2022-08-12T19:52:54.863Z,3.33
2022-08-12T19:55:24.838Z,3.70
2022-08-12T19:58:01.881Z,3.50
2022-08-12T20:00:34.961Z,3.80
2022-08-12T20:03:05.489Z,3.50
2022-08-12T20:06:06.791Z,3.70
2022-08-12T20:08:33.183Z,3.83
2022-08-12T20:12:12.454Z,3.30
2022-08-12T20:14:00.284Z,3.57
2022-08-12T20:16:53.124Z,3.37
2022-08-12T20:19:18.739Z,3.43
2022-08-12T20:21:49.631Z,3.83
2022-08-12T20:24:20.835Z,3.27
2022-08-12T20:26:52.004Z,3.33
2022-08-12T20:29:35.547Z,3.10
2022-08-12T20:32:06.023Z,3.73
2022-08-12T20:34:39.065Z,3.60
2022-08-12T20:37:10.222Z,3.20
2022-08-12T20:39:52.945Z,5.13
2022-08-12T20:42:26.157Z,3.83
2022-08-12T20:45:00.694Z,3.57
2022-08-12T20:47:46.360Z,3.47
2022-08-12T20:50:19.311Z,3.33
2022-08-12T20:52:51.242Z,3.50
2022-08-12T20:55:20.738Z,3.73
2022-08-12T20:58:02.463Z,3.37
2022-08-12T21:00:33.877Z,3.30
2022-08-12T21:03:16.249Z,3.10
2022-08-12T21:06:12.437Z,3.60
2022-08-12T21:08:44.232Z,3.70
2022-08-12T21:11:12.620Z,3.40
2022-08-12T21:13:42.187Z,3.50
2022-08-12T21:16:11.615Z,3.90
2022-08-12T21:18:50.596Z,3.50
2022-08-12T21:21:24.143Z,3.27
2022-08-12T21:23:56.255Z,3.43
2022-08-12T21:26:27.533Z,3.43
2022-08-12T21:29:01.204Z,4.13
2022-08-12T21:32:39.687Z,3.60
2022-08-12T21:34:29.137Z,3.67
2022-08-12T21:36:59.998Z,3.70
2022-08-12T21:39:35.453Z,3.70
2022-08-12T21:42:06.602Z,3.10
2022-08-12T21:45:45.730Z,3.77
2022-08-12T21:47:24.707Z,3.83
2022-08-12T21:50:04.108Z,3.50
2022-08-12T21:52:36.648Z,3.63
2022-08-12T21:55:19.241Z,3.60
2022-08-12T21:57:53.196Z,3.50
2022-08-12T22:00:32.239Z,3.63
2022-08-12T22:04:02.104Z,3.83
2022-08-12T22:06:30.800Z,4.17
2022-08-12T22:09:09.033Z,3.63
2022-08-12T22:11:56.298Z,3.97
2022-08-12T22:14:27.767Z,4.03
2022-08-12T22:16:56.459Z,3.90
2022-08-12T22:19:24.900Z,3.67
2022-08-12T22:21:56.224Z,3.90
2022-08-12T22:24:30.373Z,3.37
2022-08-12T22:27:08.302Z,4.27
2022-08-12T22:30:16.102Z,4.00
2022-08-12T22:32:49.795Z,4.20
2022-08-12T22:35:55.374Z,4.30
2022-08-12T22:38:23.819Z,4.70
2022-08-12T22:40:57.510Z,3.90
2022-08-12T22:44:00.766Z,4.20
2022-08-12T22:46:52.748Z,3.90
2022-08-12T22:49:22.441Z,4.50
2022-08-12T22:52:06.811Z,4.40
2022-08-12T22:54:37.849Z,4.30
2022-08-12T22:57:53.346Z,4.23
2022-08-12T23:00:26.981Z,4.40
2022-08-12T23:02:59.312Z,4.63
2022-08-12T23:05:57.220Z,4.27
2022-08-12T23:08:21.831Z,4.70
2022-08-12T23:10:50.587Z,4.60
2022-08-12T23:13:42.262Z,4.33
2022-08-12T23:16:18.208Z,4.63
2022-08-12T23:18:59.601Z,3.80
2022-08-12T23:22:04.091Z,4.10
2022-08-12T23:24:16.998Z,4.17
2022-08-12T23:27:03.391Z,4.50
2022-08-12T23:29:43.905Z,4.70
2022-08-12T23:32:54.076Z,4.60
2022-08-12T23:35:18.852Z,4.43
2022-08-12T23:37:53.811Z,4.47
2022-08-12T23:40:24.468Z,4.20
2022-08-12T23:42:54.275Z,4.90
2022-08-12T23:45:31.612Z,4.83
2022-08-12T23:48:05.936Z,5.07
2022-08-12T23:50:35.097Z,4.70
2022-08-12T23:53:05.726Z,4.67
2022-08-12T23:55:40.825Z,4.80
2022-08-12T23:58:22.650Z,4.30
